createdAt,value
2019-04-26T00:00:52.141Z,79.71
2019-04-26T00:03:26.444Z,79.83
2019-04-26T00:05:56.103Z,79.21
2019-04-26T00:08:24.993Z,79.42
2019-04-26T00:11:18.466Z,79.16
2019-04-26T00:14:05.168Z,79.13
2019-04-26T00:16:40.200Z,79.22
2019-04-26T00:19:09.421Z,79.54
2019-04-26T00:21:38.395Z,79.53
2019-04-26T00:24:07.532Z,79.70
2019-04-26T00:26:36.689Z,79.58
2019-04-26T00:29:05.387Z,79.62
2019-04-26T00:31:34.113Z,79.53
2019-04-26T00:34:02.738Z,79.48
2019-04-26T00:36:31.829Z,79.31
2019-04-26T00:39:00.734Z,79.21
2019-04-26T00:41:30.144Z,79.03
2019-04-26T00:43:59.543Z,79.28
2019-04-26T00:46:29.754Z,79.32
2019-04-26T00:48:59.941Z,79.08
2019-04-26T00:51:28.983Z,79.18
2019-04-26T00:53:58.511Z,79.07
2019-04-26T00:56:27.474Z,78.83
2019-04-26T00:58:56.154Z,79.10
2019-04-26T01:01:26.735Z,79.27
2019-04-26T01:03:55.724Z,79.22
2019-04-26T01:06:27.552Z,78.88
2019-04-26T01:08:56.442Z,78.66
2019-04-26T01:11:26.062Z,78.53
2019-04-26T01:13:55.404Z,78.58
2019-04-26T01:16:24.449Z,78.54
2019-04-26T01:18:53.441Z,78.24
2019-04-26T01:21:22.948Z,78.37
2019-04-26T01:23:52.764Z,78.23
2019-04-26T01:26:27.407Z,78.20
2019-04-26T01:29:03.459Z,78.35
2019-04-26T01:31:35.770Z,78.04
2019-04-26T01:34:05.164Z,78.57
2019-04-26T01:36:35.031Z,78.36
2019-04-26T01:39:16.827Z,78.09
2019-04-26T01:41:51.004Z,78.48
2019-04-26T01:44:29.251Z,77.36
2019-04-26T01:46:57.967Z,77.45
2019-04-26T01:49:26.850Z,77.81
2019-04-26T01:52:04.592Z,77.58
2019-04-26T01:54:38.570Z,77.84
2019-04-26T01:57:07.534Z,77.88
2019-04-26T01:59:38.028Z,78.13
2019-04-26T02:02:25.604Z,77.84
2019-04-26T02:04:56.660Z,77.89
2019-04-26T02:07:41.416Z,77.53
2019-04-26T02:10:20.634Z,77.34
2019-04-26T02:12:50.099Z,77.71
2019-04-26T02:15:23.019Z,77.69
2019-04-26T02:17:53.963Z,77.47
2019-04-26T02:20:57.566Z,77.13
2019-04-26T02:23:32.910Z,77.30
2019-04-26T02:26:21.050Z,76.87
2019-04-26T02:28:50.101Z,77.25
2019-04-26T02:31:19.621Z,76.98
2019-04-26T02:33:48.432Z,77.07
2019-04-26T02:36:17.419Z,76.89
2019-04-26T02:38:47.322Z,76.92
2019-04-26T02:41:16.045Z,76.75
2019-04-26T02:43:46.190Z,76.53
2019-04-26T02:46:22.812Z,76.55
2019-04-26T02:49:16.505Z,76.57
2019-04-26T02:51:52.024Z,77.00
2019-04-26T02:54:47.341Z,76.80
2019-04-26T02:57:47.237Z,76.45
2019-04-26T03:00:19.036Z,76.72
2019-04-26T03:02:53.989Z,76.92
2019-04-26T03:05:22.964Z,76.08
2019-04-26T03:08:16.233Z,76.30
2019-04-26T03:10:50.398Z,76.45
2019-04-26T03:13:32.758Z,76.27
2019-04-26T03:16:15.427Z,76.31
2019-04-26T03:19:13.977Z,76.35
2019-04-26T03:21:55.155Z,76.18
2019-04-26T03:24:28.812Z,76.06
2019-04-26T03:27:24.658Z,75.79
2019-04-26T03:30:18.961Z,75.74
2019-04-26T03:33:02.723Z,76.16
2019-04-26T03:35:56.625Z,75.76
2019-04-26T03:38:45.636Z,75.81
2019-04-26T03:41:26.396Z,75.42
2019-04-26T03:44:23.966Z,75.58
2019-04-26T03:46:57.221Z,75.61
2019-04-26T03:49:54.392Z,75.23
2019-04-26T03:52:48.081Z,75.17
2019-04-26T03:56:13.009Z,75.14
2019-04-26T03:59:01.416Z,74.64
2019-04-26T04:01:36.655Z,74.49
2019-04-26T04:04:23.696Z,74.19
2019-04-26T04:07:03.731Z,73.63
2019-04-26T04:09:24.855Z,73.45
2019-04-26T04:12:11.903Z,72.96
2019-04-26T04:14:46.771Z,72.49
2019-04-26T04:17:28.821Z,72.24
2019-04-26T04:20:54.014Z,71.44
2019-04-26T04:23:45.432Z,71.18
2019-04-26T04:26:17.399Z,70.90
2019-04-26T04:29:18.772Z,70.86
2019-04-26T04:31:51.467Z,70.62
2019-04-26T04:34:31.317Z,69.71
2019-04-26T04:37:02.735Z,69.71
2019-04-26T04:40:03.131Z,69.10
2019-04-26T04:43:13.366Z,68.75
2019-04-26T04:46:12.060Z,68.55
2019-04-26T04:49:13.113Z,68.17
2019-04-26T04:52:01.546Z,67.97
2019-04-26T04:54:39.289Z,67.27
2019-04-26T04:57:41.992Z,66.23
2019-04-26T05:00:28.909Z,65.23
2019-04-26T05:03:44.069Z,64.66
2019-04-26T05:06:40.926Z,63.82
2019-04-26T05:09:11.300Z,63.12
2019-04-26T05:12:02.901Z,62.77
2019-04-26T05:15:11.511Z,62.15
2019-04-26T05:18:05.475Z,61.94
2019-04-26T05:20:42.350Z,62.12
2019-04-26T05:23:49.004Z,62.00
2019-04-26T05:27:22.743Z,62.02
2019-04-26T05:30:36.079Z,62.42
2019-04-26T05:33:23.672Z,62.69
2019-04-26T05:36:03.358Z,63.43
2019-04-26T05:39:14.848Z,64.13
2019-04-26T05:42:41.307Z,64.49
2019-04-26T05:46:14.209Z,65.33
2019-04-26T05:49:44.518Z,65.65
2019-04-26T05:52:51.574Z,66.27
2019-04-26T05:56:05.696Z,66.67
2019-04-26T05:59:07.168Z,67.09
2019-04-26T06:01:53.363Z,67.37
2019-04-26T06:04:46.268Z,67.67
2019-04-26T06:08:03.045Z,68.15
2019-04-26T06:10:48.132Z,68.13
2019-04-26T06:13:54.379Z,68.53
2019-04-26T06:16:53.162Z,68.68
2019-04-26T06:19:48.000Z,68.80
2019-04-26T06:22:25.646Z,68.40
2019-04-26T06:25:18.901Z,68.58
2019-04-26T06:28:25.125Z,68.45
2019-04-26T06:31:11.484Z,68.00
2019-04-26T06:34:05.250Z,67.67
2019-04-26T06:36:45.058Z,67.82
2019-04-26T06:39:30.626Z,67.61
2019-04-26T06:42:36.464Z,67.28
2019-04-26T06:45:38.794Z,67.13
2019-04-26T06:48:19.287Z,66.95
2019-04-26T06:50:55.937Z,67.16
2019-04-26T06:53:50.306Z,67.44
2019-04-26T06:57:13.422Z,67.27
2019-04-26T06:59:53.623Z,67.02
2019-04-26T07:02:57.434Z,67.79
2019-04-26T07:05:28.297Z,67.60
2019-04-26T07:08:29.025Z,67.60
2019-04-26T07:12:03.052Z,67.24
2019-04-26T07:15:07.949Z,67.00
2019-04-26T07:18:04.418Z,66.42
2019-04-26T07:20:40.198Z,66.30
2019-04-26T07:23:38.837Z,65.76
2019-04-26T07:26:47.548Z,65.66
2019-04-26T07:29:35.178Z,64.86
2019-04-26T07:32:36.580Z,64.25
2019-04-26T07:35:22.329Z,63.85
2019-04-26T07:38:17.738Z,63.17
2019-04-26T07:41:24.310Z,62.99
2019-04-26T07:44:36.533Z,62.72
2019-04-26T07:47:45.345Z,62.79
2019-04-26T07:50:45.632Z,62.68
2019-04-26T07:53:50.614Z,62.35
2019-04-26T07:56:48.486Z,62.45
2019-04-26T07:59:53.737Z,61.91
2019-04-26T08:02:46.677Z,61.47
2019-04-26T08:05:18.948Z,61.54
2019-04-26T08:07:53.471Z,61.38
2019-04-26T08:10:23.488Z,61.27
2019-04-26T08:13:02.168Z,61.69
2019-04-26T08:15:41.958Z,60.77
2019-04-26T08:18:16.513Z,60.19
2019-04-26T08:20:50.243Z,60.18
2019-04-26T08:23:38.456Z,60.18
2019-04-26T08:26:01.071Z,60.60
2019-04-26T08:28:32.586Z,59.68
2019-04-26T08:31:04.659Z,58.67
2019-04-26T08:33:40.467Z,59.10
2019-04-26T08:36:10.619Z,58.61
2019-04-26T08:38:39.764Z,59.17
2019-04-26T08:41:09.864Z,58.01
2019-04-26T08:44:09.675Z,57.57
2019-04-26T08:46:48.243Z,57.22
2019-04-26T08:49:47.860Z,57.25
2019-04-26T08:52:18.899Z,57.07
2019-04-26T08:54:54.002Z,56.72
2019-04-26T08:57:24.558Z,56.22
2019-04-26T08:59:56.093Z,56.53
2019-04-26T09:02:46.693Z,56.05
2019-04-26T09:05:33.512Z,55.84
2019-04-26T09:08:04.012Z,55.83
2019-04-26T09:10:34.358Z,56.33
2019-04-26T09:13:05.308Z,55.46
2019-04-26T09:15:59.750Z,56.12
2019-04-26T09:18:28.439Z,55.73
2019-04-26T09:20:57.050Z,55.02
2019-04-26T09:23:40.196Z,55.66
2019-04-26T09:26:12.551Z,55.49
2019-04-26T09:28:58.150Z,55.38
2019-04-26T09:31:50.505Z,54.76
2019-04-26T09:34:18.760Z,54.85
2019-04-26T09:36:47.651Z,53.23
2019-04-26T09:39:17.545Z,53.25
2019-04-26T09:41:46.168Z,52.28
2019-04-26T09:44:33.834Z,51.88
2019-04-26T09:47:20.147Z,50.61
2019-04-26T09:49:58.440Z,50.57
2019-04-26T09:52:30.681Z,50.18
2019-04-26T09:54:59.300Z,48.62
2019-04-26T09:57:28.301Z,47.67
2019-04-26T09:59:56.933Z,47.43
2019-04-26T10:02:29.524Z,48.06
2019-04-26T10:04:56.453Z,46.00
2019-04-26T10:07:25.449Z,46.08
2019-04-26T10:09:56.457Z,45.66
2019-04-26T10:12:34.388Z,46.14
2019-04-26T10:15:26.426Z,46.45
2019-04-26T10:17:53.164Z,46.74
2019-04-26T10:20:22.059Z,45.66
2019-04-26T10:22:51.360Z,45.18
2019-04-26T10:25:21.174Z,44.78
2019-04-26T10:27:50.172Z,45.80
2019-04-26T10:30:19.158Z,46.05
2019-04-26T10:32:48.094Z,47.24
2019-04-26T10:35:21.176Z,47.71
2019-04-26T10:37:49.259Z,45.38
2019-04-26T10:40:18.186Z,44.47
2019-04-26T10:42:47.100Z,44.32
2019-04-26T10:45:16.337Z,43.53
2019-04-26T10:47:45.377Z,42.58
2019-04-26T10:50:14.952Z,43.05
2019-04-26T10:52:55.737Z,40.78
2019-04-26T10:55:52.518Z,43.04
2019-04-26T10:58:26.852Z,42.20
2019-04-26T11:00:57.268Z,40.38
2019-04-26T11:03:25.845Z,40.08
2019-04-26T11:05:55.372Z,40.86
2019-04-26T11:08:24.549Z,41.45
2019-04-26T11:10:53.541Z,41.22
2019-04-26T11:13:22.543Z,40.82
2019-04-26T11:15:51.203Z,42.53
2019-04-26T11:18:27.082Z,43.28
2019-04-26T11:20:50.268Z,44.95
2019-04-26T11:23:18.902Z,46.13
2019-04-26T11:25:47.547Z,45.40
2019-04-26T11:28:17.317Z,44.39
2019-04-26T11:30:48.044Z,42.94
2019-04-26T11:33:17.514Z,45.72
2019-04-26T11:35:46.124Z,47.55
2019-04-26T11:38:14.752Z,48.53
2019-04-26T11:40:44.337Z,48.48
2019-04-26T11:43:15.823Z,47.27
2019-04-26T11:45:45.329Z,50.25
2019-04-26T11:48:15.238Z,51.37
2019-04-26T11:50:44.097Z,52.52
2019-04-26T11:53:12.713Z,53.53
2019-04-26T11:55:41.338Z,56.01
2019-04-26T11:58:09.954Z,59.94
2019-04-26T12:00:46.383Z,59.21
2019-04-26T12:03:15.053Z,61.66
2019-04-26T12:05:48.849Z,62.78
2019-04-26T12:08:22.879Z,63.77
2019-04-26T12:10:51.824Z,64.83
2019-04-26T12:13:21.278Z,64.32
2019-04-26T12:15:51.342Z,64.13
2019-04-26T12:18:20.048Z,67.44
2019-04-26T12:20:49.019Z,64.27
2019-04-26T12:23:20.540Z,64.40
2019-04-26T12:25:48.650Z,62.23
2019-04-26T12:28:18.252Z,62.70
2019-04-26T12:30:46.932Z,61.84
2019-04-26T12:33:15.568Z,61.66
2019-04-26T12:35:44.626Z,61.69
2019-04-26T12:38:13.247Z,61.13
2019-04-26T12:40:42.232Z,61.53
2019-04-26T12:43:12.219Z,62.10
2019-04-26T12:45:51.388Z,62.42
2019-04-26T12:48:22.181Z,62.73
2019-04-26T12:50:50.791Z,61.87
2019-04-26T12:53:20.070Z,62.56
2019-04-26T12:55:52.711Z,61.44
2019-04-26T12:58:19.391Z,60.68
2019-04-26T13:00:54.173Z,59.38
2019-04-26T13:03:20.473Z,58.24
2019-04-26T13:05:57.405Z,56.21
2019-04-26T13:08:19.990Z,56.83
2019-04-26T13:11:07.439Z,55.02
2019-04-26T13:13:41.718Z,54.16
2019-04-26T13:16:14.413Z,53.62
2019-04-26T13:18:45.218Z,54.58
2019-04-26T13:21:14.078Z,53.95
2019-04-26T13:23:43.017Z,53.65
2019-04-26T13:26:12.323Z,53.84
2019-04-26T13:28:40.959Z,51.71
2019-04-26T13:31:09.597Z,51.87
2019-04-26T13:33:38.886Z,50.86
2019-04-26T13:36:07.814Z,51.79
2019-04-26T13:38:39.419Z,51.58
2019-04-26T13:41:07.645Z,51.87
2019-04-26T13:43:36.500Z,53.87
2019-04-26T13:46:23.239Z,54.03
2019-04-26T13:49:07.575Z,54.93
2019-04-26T13:51:36.243Z,55.84
2019-04-26T13:54:05.257Z,55.22
2019-04-26T13:56:35.967Z,54.09
2019-04-26T13:59:04.548Z,52.79
2019-04-26T14:01:34.007Z,52.83
2019-04-26T14:04:07.022Z,53.84
2019-04-26T14:06:35.026Z,56.72
2019-04-26T14:09:04.690Z,57.03
2019-04-26T14:11:33.628Z,56.98
2019-04-26T14:14:02.257Z,57.15
2019-04-26T14:16:31.169Z,56.23
2019-04-26T14:19:00.351Z,56.17
2019-04-26T14:21:32.995Z,57.65
2019-04-26T14:24:23.836Z,58.20
2019-04-26T14:26:57.204Z,58.51
2019-04-26T14:29:28.414Z,59.23
2019-04-26T14:31:57.542Z,59.15
2019-04-26T14:34:26.263Z,57.04
2019-04-26T14:37:05.825Z,56.30
2019-04-26T14:39:35.260Z,56.24
2019-04-26T14:41:57.280Z,55.76
2019-04-26T14:44:30.924Z,57.11
2019-04-26T14:46:58.065Z,58.26
2019-04-26T14:49:38.517Z,58.23
2019-04-26T14:51:57.227Z,57.27
2019-04-26T14:54:26.158Z,58.32
2019-04-26T14:56:55.052Z,56.68
2019-04-26T14:59:44.225Z,55.77
2019-04-26T15:02:33.992Z,56.65
2019-04-26T15:05:24.806Z,55.17
2019-04-26T15:07:53.812Z,57.06
2019-04-26T15:10:24.248Z,60.25
2019-04-26T15:13:01.460Z,63.62
2019-04-26T15:15:27.077Z,65.15
2019-04-26T15:17:59.433Z,65.35
2019-04-26T15:20:25.016Z,66.75
2019-04-26T15:22:53.619Z,66.95
2019-04-26T15:25:22.831Z,67.25
2019-04-26T15:27:52.528Z,66.71
2019-04-26T15:30:22.075Z,67.52
2019-04-26T15:32:52.873Z,67.21
2019-04-26T15:35:23.208Z,67.13
2019-04-26T15:37:53.421Z,66.91
2019-04-26T15:40:40.331Z,66.04
2019-04-26T15:43:28.452Z,66.17
2019-04-26T15:46:33.441Z,66.40
2019-04-26T15:49:12.518Z,66.06
2019-04-26T15:51:42.763Z,64.84
2019-04-26T15:54:11.729Z,64.90
2019-04-26T15:56:40.723Z,66.71
2019-04-26T15:59:09.347Z,67.57
2019-04-26T16:01:41.883Z,68.17
2019-04-26T16:04:08.535Z,68.31
2019-04-26T16:06:41.124Z,68.42
2019-04-26T16:09:08.717Z,67.42
2019-04-26T16:11:37.428Z,68.24
2019-04-26T16:14:06.438Z,68.12
2019-04-26T16:16:35.310Z,69.30
2019-04-26T16:19:04.108Z,69.88
2019-04-26T16:21:32.963Z,71.34
2019-04-26T16:24:02.768Z,70.79
2019-04-26T16:26:32.931Z,70.58
2019-04-26T16:29:24.178Z,70.91
2019-04-26T16:32:10.328Z,70.73
2019-04-26T16:34:41.774Z,71.15
2019-04-26T16:37:15.047Z,71.25
2019-04-26T16:39:46.075Z,70.77
2019-04-26T16:42:14.000Z,71.32
2019-04-26T16:44:45.031Z,71.69
2019-04-26T16:47:13.744Z,72.01
2019-04-26T16:49:46.217Z,72.47
2019-04-26T16:52:13.997Z,72.73
2019-04-26T16:54:43.181Z,72.96
2019-04-26T16:57:12.466Z,73.18
2019-04-26T16:59:47.661Z,73.16
2019-04-26T17:02:15.619Z,73.12
2019-04-26T17:04:43.538Z,73.12
2019-04-26T17:07:13.883Z,73.48
2019-04-26T17:09:59.822Z,73.48
2019-04-26T17:12:14.960Z,73.09
2019-04-26T17:14:47.517Z,72.65
2019-04-26T17:17:15.266Z,72.95
2019-04-26T17:19:45.010Z,73.75
2019-04-26T17:22:44.709Z,73.70
2019-04-26T17:25:29.067Z,74.06
2019-04-26T17:27:57.716Z,74.21
2019-04-26T17:30:26.754Z,74.93
2019-04-26T17:32:55.649Z,75.22
2019-04-26T17:35:25.414Z,75.49
2019-04-26T17:37:57.473Z,74.70
2019-04-26T17:40:25.459Z,73.97
2019-04-26T17:42:55.330Z,74.30
2019-04-26T17:45:23.968Z,73.74
2019-04-26T17:47:53.073Z,74.37
2019-04-26T17:50:21.763Z,74.81
2019-04-26T17:52:51.561Z,75.35
2019-04-26T17:55:20.300Z,76.04
2019-04-26T17:57:50.696Z,75.56
2019-04-26T18:00:27.160Z,76.74
2019-04-26T18:02:53.648Z,76.57
2019-04-26T18:05:24.389Z,76.77
2019-04-26T18:07:58.367Z,77.00
2019-04-26T18:10:23.653Z,76.71
2019-04-26T18:12:52.662Z,77.05
2019-04-26T18:15:21.738Z,77.12
2019-04-26T18:18:09.668Z,77.33
2019-04-26T18:20:56.910Z,77.20
2019-04-26T18:23:26.100Z,78.00
2019-04-26T18:25:55.073Z,77.89
2019-04-26T18:28:23.798Z,77.99
2019-04-26T18:30:53.115Z,77.98
2019-04-26T18:33:26.078Z,77.96
2019-04-26T18:35:57.458Z,78.53
2019-04-26T18:38:26.403Z,78.86
2019-04-26T18:41:00.507Z,79.29
2019-04-26T18:43:25.390Z,79.51
2019-04-26T18:45:58.578Z,79.74
2019-04-26T18:48:26.200Z,79.30
2019-04-26T18:50:55.414Z,78.95
2019-04-26T18:53:43.807Z,78.35
2019-04-26T18:56:12.849Z,77.66
2019-04-26T18:58:41.705Z,76.93
2019-04-26T19:01:13.593Z,76.66
2019-04-26T19:03:43.694Z,76.99
2019-04-26T19:06:27.144Z,76.11
2019-04-26T19:08:47.827Z,76.23
2019-04-26T19:11:14.160Z,76.00
2019-04-26T19:14:15.308Z,75.90
2019-04-26T19:17:02.953Z,75.69
2019-04-26T19:19:41.983Z,75.49
2019-04-26T19:22:15.911Z,75.03
2019-04-26T19:24:42.327Z,75.12
2019-04-26T19:27:12.470Z,74.80
2019-04-26T19:29:43.261Z,74.71
2019-04-26T19:32:11.951Z,74.77
2019-04-26T19:34:42.123Z,74.84
2019-04-26T19:37:11.062Z,74.65
2019-04-26T19:39:40.054Z,74.33
2019-04-26T19:42:09.253Z,74.61
2019-04-26T19:44:38.555Z,74.59
2019-04-26T19:47:17.427Z,74.66
2019-04-26T19:49:54.734Z,74.18
2019-04-26T19:53:01.801Z,74.42
2019-04-26T19:55:55.708Z,74.23
2019-04-26T19:58:26.911Z,74.16
2019-04-26T20:00:56.255Z,74.44
2019-04-26T20:03:25.272Z,74.47
2019-04-26T20:05:53.899Z,74.71
2019-04-26T20:08:23.537Z,74.35
2019-04-26T20:10:52.773Z,74.29
2019-04-26T20:13:22.143Z,73.85
2019-04-26T20:15:53.306Z,74.17
2019-04-26T20:18:21.781Z,74.47
2019-04-26T20:20:52.136Z,74.49
2019-04-26T20:23:22.864Z,74.48
2019-04-26T20:25:53.063Z,74.89
2019-04-26T20:28:22.796Z,75.07
2019-04-26T20:31:09.452Z,75.50
2019-04-26T20:33:38.539Z,75.37
2019-04-26T20:36:07.791Z,75.39
2019-04-26T20:38:45.486Z,75.10
2019-04-26T20:41:07.551Z,75.27
2019-04-26T20:43:42.158Z,75.05
2019-04-26T20:46:14.588Z,74.96
2019-04-26T20:48:37.646Z,74.59
2019-04-26T20:51:10.789Z,75.29
2019-04-26T20:53:41.270Z,75.22
2019-04-26T20:56:09.888Z,75.08
2019-04-26T20:58:43.316Z,75.60
2019-04-26T21:01:12.990Z,75.47
2019-04-26T21:03:42.801Z,75.24
2019-04-26T21:06:11.589Z,74.35
2019-04-26T21:08:42.329Z,74.35
2019-04-26T21:11:13.736Z,73.82
2019-04-26T21:13:42.358Z,73.80
2019-04-26T21:16:15.196Z,73.60
2019-04-26T21:18:44.062Z,73.60
2019-04-26T21:21:12.291Z,73.19
2019-04-26T21:23:43.945Z,73.06
2019-04-26T21:26:34.525Z,72.79
2019-04-26T21:29:20.384Z,72.80
2019-04-26T21:32:20.458Z,72.73
2019-04-26T21:34:50.700Z,72.89
2019-04-26T21:37:25.642Z,72.14
2019-04-26T21:40:03.802Z,71.57
2019-04-26T21:42:33.366Z,71.68
2019-04-26T21:45:03.561Z,71.19
2019-04-26T21:47:35.162Z,71.43
2019-04-26T21:50:04.220Z,71.03
2019-04-26T21:52:34.282Z,70.70
2019-04-26T21:55:04.861Z,70.79
2019-04-26T21:57:35.003Z,70.91
2019-04-26T22:00:06.886Z,71.09
2019-04-26T22:02:37.487Z,70.83
2019-04-26T22:05:07.987Z,70.90
2019-04-26T22:07:39.414Z,70.77
2019-04-26T22:10:14.260Z,70.72
2019-04-26T22:12:44.961Z,70.59
2019-04-26T22:15:25.231Z,70.57
2019-04-26T22:17:56.879Z,71.07
2019-04-26T22:20:33.714Z,70.97
2019-04-26T22:23:21.458Z,71.33
2019-04-26T22:25:51.778Z,71.31
2019-04-26T22:28:20.771Z,71.40
2019-04-26T22:30:49.751Z,71.55
2019-04-26T22:33:18.763Z,71.51
2019-04-26T22:35:50.509Z,71.90
2019-04-26T22:38:23.702Z,71.92
2019-04-26T22:40:53.283Z,71.98
2019-04-26T22:43:36.223Z,71.53
2019-04-26T22:46:14.164Z,71.48
2019-04-26T22:48:44.204Z,71.51
2019-04-26T22:51:14.022Z,71.63
2019-04-26T22:53:43.392Z,71.78
2019-04-26T22:56:13.394Z,71.57
2019-04-26T22:58:44.110Z,71.77
2019-04-26T23:01:13.163Z,71.69
2019-04-26T23:03:46.357Z,71.86
2019-04-26T23:06:13.600Z,71.81
2019-04-26T23:08:43.886Z,72.09
2019-04-26T23:11:13.485Z,72.52
2019-04-26T23:13:59.745Z,72.58
2019-04-26T23:16:40.498Z,72.89
2019-04-26T23:19:30.725Z,73.06
2019-04-26T23:21:59.376Z,73.13
2019-04-26T23:24:28.240Z,73.71
2019-04-26T23:26:57.639Z,74.11
2019-04-26T23:29:26.574Z,74.34
2019-04-26T23:31:55.655Z,74.45
2019-04-26T23:34:25.249Z,74.81
2019-04-26T23:36:54.159Z,75.32
2019-04-26T23:39:24.477Z,75.68
2019-04-26T23:41:53.997Z,75.91
2019-04-26T23:44:23.256Z,75.87
2019-04-26T23:46:54.956Z,76.58
2019-04-26T23:49:25.022Z,76.40
2019-04-26T23:51:53.445Z,76.45
2019-04-26T23:54:23.890Z,76.59
2019-04-26T23:56:57.375Z,77.26
2019-04-26T23:59:24.803Z,77.36
